Time;durP1;ratioP1;P1;durP2;ratioP2;P2;SDS_P1;SDS_P2;PMS_P1;PMS_P2;Temp;Humidity;BMP_temperature;BMP_pressure;BME280_temperature;BME280_humidity;BME280_pressure;Samples;Min_cycle;Max_cycle;Signal;HPM_P1;HPM_P2
2023/10/04 00:02:19;;;;;;;4.97;2.70;;;12.20;99.90;;;;;;5067958;28;20123;-82
2023/10/04 00:04:45;;;;;;;7.28;2.60;;;12.20;99.90;;;;;;5058605;28;20122;-81
2023/10/04 00:07:11;;;;;;;3.90;2.60;;;12.20;99.90;;;;;;5075052;28;20804;-80
2023/10/04 00:09:37;;;;;;;6.55;4.22;;;12.20;99.90;;;;;;5111767;27;20500;-81
2023/10/04 00:12:03;;;;;;;8.32;2.95;;;12.20;99.90;;;;;;5080768;28;20156;-82
2023/10/04 00:14:30;;;;;;;6.03;3.00;;;12.20;99.90;;;;;;5074857;28;20131;-81
2023/10/04 00:16:56;;;;;;;5.03;2.92;;;12.20;99.90;;;;;;5074651;28;20227;-81
2023/10/04 00:19:22;;;;;;;8.45;3.33;;;12.10;99.90;;;;;;5068718;28;20605;-82
2023/10/04 00:21:47;;;;;;;7.85;2.95;;;12.20;99.90;;;;;;5071613;28;20048;-82
2023/10/04 00:24:13;;;;;;;5.47;2.70;;;12.10;99.90;;;;;;5073773;28;20052;-81
2023/10/04 00:26:41;;;;;;;6.25;2.78;;;12.20;99.90;;;;;;5081361;28;20073;-81
2023/10/04 00:29:07;;;;;;;7.78;2.55;;;12.20;99.90;;;;;;5069508;28;20094;-81
2023/10/04 00:31:33;;;;;;;3.95;2.45;;;12.20;99.90;;;;;;5080411;28;20056;-81
2023/10/04 00:33:59;;;;;;;7.05;2.38;;;12.20;99.90;;;;;;5067245;28;20061;-80
2023/10/04 00:36:25;;;;;;;6.45;2.40;;;12.10;99.90;;;;;;5065769;28;20516;-81
2023/10/04 00:38:50;;;;;;;9.35;3.63;;;12.10;99.90;;;;;;5070236;28;20753;-81
2023/10/04 00:41:20;;;;;;;6.63;2.60;;;12.10;99.90;;;;;;5074492;28;20048;-81
2023/10/04 00:43:52;;;;;;;7.55;2.60;;;12.10;99.90;;;;;;5078247;28;20128;-81
2023/10/04 00:46:19;;;;;;;5.07;3.10;;;12.20;99.90;;;;;;5065145;28;20086;-81
2023/10/04 00:48:46;;;;;;;8.73;3.00;;;12.20;99.90;;;;;;5074067;28;20393;-81
2023/10/04 00:51:13;;;;;;;4.90;2.78;;;12.20;99.90;;;;;;5079947;28;20104;-81
2023/10/04 00:53:39;;;;;;;6.88;3.03;;;12.20;99.90;;;;;;5073340;28;20483;-79
2023/10/04 00:56:14;;;;;;;6.65;3.15;;;12.20;99.90;;;;;;5061837;28;20057;-80
2023/10/04 00:58:41;;;;;;;7.53;3.25;;;12.20;99.90;;;;;;5079644;28;20101;-81
2023/10/04 01:01:07;;;;;;;5.20;2.60;;;12.10;99.90;;;;;;5081396;28;20044;-81
2023/10/04 01:03:36;;;;;;;8.20;3.30;;;12.10;99.90;;;;;;5080541;28;20055;-81
2023/10/04 01:06:03;;;;;;;9.60;3.35;;;12.10;99.90;;;;;;5073638;28;20048;-81
2023/10/04 01:08:30;;;;;;;7.30;2.70;;;12.10;99.90;;;;;;5066875;28;20046;-81
2023/10/04 01:10:56;;;;;;;6.97;2.90;;;12.10;99.90;;;;;;5082288;28;20047;-81
2023/10/04 01:13:22;;;;;;;7.22;3.78;;;12.10;99.90;;;;;;5078459;28;20059;-80
2023/10/04 01:15:50;;;;;;;10.63;3.88;;;12.10;99.90;;;;;;5076756;28;20048;-81
2023/10/04 01:18:17;;;;;;;8.73;3.10;;;12.10;99.90;;;;;;5077198;28;20138;-81
2023/10/04 01:20:43;;;;;;;7.05;3.97;;;12.10;99.90;;;;;;5079451;28;20051;-81
2023/10/04 01:23:12;;;;;;;7.43;2.72;;;12.10;99.90;;;;;;5077117;28;20052;-81
2023/10/04 01:25:41;;;;;;;7.20;3.70;;;12.10;99.90;;;;;;5064519;28;20091;-81
2023/10/04 01:28:12;;;;;;;9.32;3.50;;;12.10;99.90;;;;;;5063227;28;20052;-80
2023/10/04 01:30:43;;;;;;;8.57;3.08;;;12.10;99.90;;;;;;5067288;28;20048;-81
2023/10/04 01:33:10;;;;;;;8.13;3.08;;;12.10;99.90;;;;;;5068448;28;20074;-81
2023/10/04 01:35:37;;;;;;;9.38;3.42;;;12.00;99.90;;;;;;5074513;28;20084;-81
2023/10/04 01:38:06;;;;;;;20.65;4.32;;;12.00;99.90;;;;;;5064974;28;20083;-81
2023/10/04 01:40:34;;;;;;;9.13;3.40;;;12.00;99.90;;;;;;5062672;28;20248;-81
2023/10/04 01:43:00;;;;;;;7.03;3.10;;;12.00;99.90;;;;;;5077934;28;20614;-81
2023/10/04 01:45:26;;;;;;;8.63;3.78;;;12.00;99.90;;;;;;5061744;28;20053;-81
2023/10/04 01:47:51;;;;;;;6.40;3.17;;;12.00;99.90;;;;;;5064134;28;20201;-81
2023/10/04 01:50:18;;;;;;;5.88;2.97;;;11.90;99.90;;;;;;5063520;28;20806;-81
2023/10/04 01:52:47;;;;;;;16.15;3.97;;;11.90;99.90;;;;;;5076798;28;20463;-82
2023/10/04 01:55:16;;;;;;;10.68;3.55;;;12.00;99.90;;;;;;5080988;28;20051;-82
2023/10/04 01:57:43;;;;;;;9.02;3.45;;;11.90;99.90;;;;;;5076624;28;20040;-80
2023/10/04 02:00:12;;;;;;;10.82;3.28;;;12.00;99.90;;;;;;5071922;28;20044;-80
2023/10/04 02:02:39;;;;;;;7.05;3.05;;;12.00;99.90;;;;;;5072105;28;20056;-80
2023/10/04 02:05:09;;;;;;;6.20;3.30;;;12.00;99.90;;;;;;5072882;28;20080;-81
2023/10/04 02:07:38;;;;;;;6.05;2.83;;;11.90;99.90;;;;;;5074173;28;20067;-81
2023/10/04 02:10:13;;;;;;;8.80;3.38;;;11.90;99.90;;;;;;5070406;28;20144;-82
2023/10/04 02:12:41;;;;;;;6.82;3.47;;;12.00;99.90;;;;;;5071821;28;20054;-80
2023/10/04 02:15:09;;;;;;;8.32;3.83;;;12.00;99.90;;;;;;5069361;28;20093;-80
2023/10/04 02:17:34;;;;;;;10.90;3.30;;;12.00;99.90;;;;;;5074230;28;20090;-81
2023/10/04 02:20:00;;;;;;;11.52;3.20;;;12.00;99.90;;;;;;5077840;28;20221;-81
2023/10/04 02:22:26;;;;;;;13.85;3.78;;;12.00;99.90;;;;;;5075926;28;20109;-80
2023/10/04 02:24:54;;;;;;;7.20;3.33;;;12.00;99.90;;;;;;5106347;27;20373;-81
2023/10/04 02:27:19;;;;;;;5.68;3.03;;;12.00;99.90;;;;;;5076216;28;20040;-81
2023/10/04 02:29:47;;;;;;;8.38;3.13;;;12.00;99.90;;;;;;5060153;28;20894;-82
2023/10/04 02:32:13;;;;;;;9.50;3.30;;;12.00;99.90;;;;;;5071402;28;20055;-81
2023/10/04 02:34:41;;;;;;;7.78;3.42;;;12.00;99.90;;;;;;5066976;28;20051;-80
2023/10/04 02:37:07;;;;;;;9.02;3.42;;;12.00;99.90;;;;;;5066004;28;20040;-81
2023/10/04 02:39:39;;;;;;;6.22;3.25;;;12.00;99.90;;;;;;5071594;28;20093;-81
2023/10/04 02:42:12;;;;;;;10.10;3.30;;;12.00;99.90;;;;;;5070634;28;20093;-80
2023/10/04 02:44:37;;;;;;;;;;;12.00;99.90;;;;;;5071447;28;20056;-80
2023/10/04 02:47:06;;;;;;;10.48;3.15;;;12.00;99.90;;;;;;5071020;28;19928;-81
2023/10/04 02:49:37;;;;;;;8.23;3.42;;;12.00;99.90;;;;;;5077599;28;20062;-81
2023/10/04 02:52:06;;;;;;;12.90;4.35;;;12.00;99.90;;;;;;5078979;28;20370;-81
2023/10/04 02:54:32;;;;;;;10.27;4.07;;;12.10;99.90;;;;;;5079889;28;20052;-81
2023/10/04 02:56:58;;;;;;;8.32;3.88;;;12.10;99.90;;;;;;5078775;28;20047;-82
2023/10/04 02:59:25;;;;;;;10.60;3.58;;;12.10;99.90;;;;;;5076826;28;20086;-80
2023/10/04 03:01:51;;;;;;;7.15;3.80;;;12.10;99.90;;;;;;5066513;28;20048;-81
2023/10/04 03:04:19;;;;;;;7.32;3.72;;;12.00;99.90;;;;;;5076524;28;20125;-80
2023/10/04 03:06:45;;;;;;;6.40;3.35;;;12.10;99.90;;;;;;5059709;28;20087;-81
2023/10/04 03:09:12;;;;;;;9.15;3.47;;;12.10;99.90;;;;;;5059688;28;20091;-80
2023/10/04 03:11:42;;;;;;;7.88;3.45;;;12.10;99.90;;;;;;5066837;28;20496;-81
2023/10/04 03:14:15;;;;;;;7.22;3.10;;;12.10;99.90;;;;;;5063999;28;20130;-82
2023/10/04 03:16:42;;;;;;;6.35;3.70;;;12.10;99.90;;;;;;5062063;28;20052;-80
2023/10/04 03:19:10;;;;;;;12.40;4.00;;;12.00;99.90;;;;;;5068732;28;20064;-80
2023/10/04 03:21:38;;;;;;;9.10;3.80;;;12.00;99.90;;;;;;5078216;28;20045;-81
2023/10/04 03:24:09;;;;;;;7.18;3.50;;;12.00;99.90;;;;;;5071124;28;20147;-82
2023/10/04 03:26:35;;;;;;;14.88;3.53;;;12.00;99.90;;;;;;5074009;28;20052;-81
2023/10/04 03:29:01;;;;;;;9.68;3.95;;;12.00;99.90;;;;;;5060919;28;20082;-81
2023/10/04 03:31:27;;;;;;;7.15;3.40;;;12.00;99.90;;;;;;5060522;28;20528;-81
2023/10/04 03:33:55;;;;;;;6.05;3.67;;;12.00;99.90;;;;;;5066133;28;20073;-80
2023/10/04 03:36:21;;;;;;;13.63;3.40;;;12.00;99.90;;;;;;5077476;28;20064;-80
2023/10/04 03:38:49;;;;;;;10.80;4.00;;;11.90;99.90;;;;;;5072552;28;20040;-81
2023/10/04 03:41:16;;;;;;;10.93;3.97;;;11.90;99.90;;;;;;5082745;28;20076;-81
2023/10/04 03:43:42;;;;;;;5.15;3.30;;;11.30;99.90;;;;;;5061129;28;20090;-80
2023/10/04 03:46:17;;;;;;;10.48;3.67;;;11.90;99.90;;;;;;5075003;28;20056;-80
2023/10/04 03:48:45;;;;;;;8.88;3.90;;;11.90;99.90;;;;;;5082084;28;20048;-81
2023/10/04 03:51:11;;;;;;;16.90;3.95;;;11.90;99.90;;;;;;5079313;28;20118;-81
2023/10/04 03:53:37;;;;;;;6.78;3.70;;;11.90;99.90;;;;;;5063296;28;20041;-81
2023/10/04 03:56:04;;;;;;;9.35;4.00;;;11.90;99.90;;;;;;5112409;27;20097;-80
2023/10/04 03:58:33;;;;;;;9.10;3.35;;;11.90;99.90;;;;;;5082478;28;20404;-81
2023/10/04 04:00:58;;;;;;;9.82;3.65;;;11.90;99.90;;;;;;5082253;28;20628;-81
2023/10/04 04:03:24;;;;;;;8.68;3.90;;;11.90;99.90;;;;;;5081769;28;20048;-82
2023/10/04 04:05:53;;;;;;;7.40;3.92;;;11.90;99.90;;;;;;5081226;28;20067;-81
2023/10/04 04:08:19;;;;;;;6.93;2.90;;;12.00;99.90;;;;;;5079299;28;20355;-81
2023/10/04 04:10:46;;;;;;;7.28;3.75;;;12.00;99.90;;;;;;5079916;28;20546;-80
2023/10/04 04:13:12;;;;;;;13.48;4.00;;;12.00;99.90;;;;;;5067973;28;20082;-81
2023/10/04 04:15:41;;;;;;;8.80;3.58;;;12.00;99.90;;;;;;5072359;28;20164;-81
2023/10/04 04:18:13;;;;;;;12.25;3.67;;;11.90;99.90;;;;;;5078050;28;20036;-81
2023/10/04 04:20:41;;;;;;;8.35;4.25;;;11.90;99.90;;;;;;5079736;28;20088;-82
2023/10/04 04:23:10;;;;;;;12.20;3.63;;;11.90;99.90;;;;;;5067698;28;20061;-81
2023/10/04 04:25:39;;;;;;;10.57;3.70;;;11.90;99.90;;;;;;5075188;28;20037;-81
2023/10/04 04:28:07;;;;;;;7.70;3.85;;;11.90;99.90;;;;;;5078772;28;20131;-81
2023/10/04 04:30:35;;;;;;;10.52;3.88;;;11.90;99.90;;;;;;5078599;28;20354;-82
2023/10/04 04:33:07;;;;;;;11.77;3.75;;;11.90;99.90;;;;;;5074796;28;20842;-82
2023/10/04 04:38:16;;;;;;;6.60;3.45;;;11.90;99.90;;;;;;5095907;27;20143;-80
2023/10/04 04:40:50;;;;;;;12.73;4.10;;;11.90;99.90;;;;;;5058923;28;20805;-81
2023/10/04 04:45:51;;;;;;;9.30;3.95;;;11.90;99.90;;;;;;5078920;28;20056;-81
2023/10/04 04:48:29;;;;;;;10.23;3.88;;;12.00;99.90;;;;;;5070379;28;20048;-81
2023/10/04 04:50:57;;;;;;;14.48;4.45;;;12.00;99.90;;;;;;5062095;28;20052;-81
2023/10/04 04:53:27;;;;;;;10.27;4.03;;;11.90;99.90;;;;;;5074615;28;20533;-81
2023/10/04 04:55:54;;;;;;;10.48;3.42;;;12.00;99.90;;;;;;5067867;28;20051;-81
2023/10/04 04:58:21;;;;;;;11.15;3.88;;;11.90;99.90;;;;;;5074626;28;20154;-80
2023/10/04 05:00:50;;;;;;;9.68;3.30;;;12.00;99.90;;;;;;5076570;28;20043;-81
2023/10/04 05:03:17;;;;;;;11.25;4.05;;;12.00;99.90;;;;;;5074892;28;20051;-80
2023/10/04 05:05:42;;;;;;;11.75;4.63;;;12.00;99.90;;;;;;5075011;28;20048;-81
2023/10/04 05:08:08;;;;;;;12.80;4.00;;;12.00;99.90;;;;;;5072226;28;20041;-82
2023/10/04 05:10:38;;;;;;;8.05;3.88;;;12.00;99.90;;;;;;5072967;28;20056;-82
2023/10/04 05:13:05;;;;;;;10.10;3.83;;;12.00;99.90;;;;;;5065363;28;20052;-83
2023/10/04 05:15:34;;;;;;;10.10;3.78;;;12.00;99.90;;;;;;5072241;28;20088;-83
2023/10/04 05:18:03;;;;;;;9.45;3.60;;;12.00;99.90;;;;;;5060242;28;20048;-81
2023/10/04 05:20:31;;;;;;;11.70;5.05;;;12.00;99.90;;;;;;5068137;28;20364;-83
2023/10/04 05:23:00;;;;;;;8.93;4.07;;;12.00;99.90;;;;;;5078899;28;20051;-83
2023/10/04 05:25:29;;;;;;;7.30;3.60;;;12.10;99.90;;;;;;5076483;28;20155;-82
2023/10/04 05:28:24;;;;;;;7.32;3.55;;;12.10;99.90;;;;;;5074836;28;20559;-80
2023/10/04 05:30:51;;;;;;;8.63;4.22;;;12.10;99.90;;;;;;5075269;28;20074;-81
2023/10/04 05:33:20;;;;;;;10.80;4.28;;;12.10;99.90;;;;;;5074019;28;20044;-84
2023/10/04 05:35:48;;;;;;;11.13;4.15;;;12.10;99.90;;;;;;5076037;28;20048;-83
2023/10/04 05:38:14;;;;;;;8.77;3.50;;;12.10;99.90;;;;;;5072470;28;20040;-81
2023/10/04 05:40:46;;;;;;;8.82;4.50;;;12.10;99.90;;;;;;5081024;28;20601;-81
2023/10/04 05:43:13;;;;;;;8.95;3.95;;;12.10;99.90;;;;;;5075654;28;20115;-81
2023/10/04 05:45:42;;;;;;;12.93;4.85;;;12.10;99.90;;;;;;5074911;28;20126;-81
2023/10/04 05:48:09;;;;;;;8.02;3.60;;;12.10;99.90;;;;;;5075729;28;20115;-81
2023/10/04 05:50:35;;;;;;;8.48;3.90;;;12.10;99.90;;;;;;5066461;28;20048;-80
2023/10/04 05:53:05;;;;;;;8.35;3.55;;;12.20;99.90;;;;;;5077869;28;20048;-81
2023/10/04 05:55:32;;;;;;;6.78;3.60;;;12.20;99.90;;;;;;5079572;28;20155;-81
2023/10/04 05:57:58;;;;;;;11.85;4.65;;;12.20;99.90;;;;;;5076358;28;20052;-80
2023/10/04 06:02:55;;;;;;;10.25;4.10;;;12.30;99.90;;;;;;5069114;28;20048;-80
2023/10/04 06:05:22;;;;;;;8.43;3.75;;;12.30;99.90;;;;;;5075706;28;20048;-82
2023/10/04 06:07:48;;;;;;;9.93;4.15;;;12.30;99.90;;;;;;5112868;27;20503;-83
2023/10/04 06:10:16;;;;;;;9.80;4.38;;;12.30;99.90;;;;;;5068104;28;20053;-83
2023/10/04 06:12:43;;;;;;;13.10;3.97;;;12.30;99.90;;;;;;5063734;28;20045;-82
2023/10/04 06:15:14;;;;;;;7.68;3.28;;;12.30;99.90;;;;;;5063425;28;20048;-75
2023/10/04 06:17:45;;;;;;;8.82;3.90;;;12.40;99.90;;;;;;5064110;28;20048;-77
2023/10/04 06:23:00;;;;;;;7.45;4.03;;;12.40;99.90;;;;;;5079271;28;20159;-80
2023/10/04 06:25:29;;;;;;;9.90;4.07;;;12.40;99.90;;;;;;5068676;28;20052;-81
2023/10/04 06:27:56;;;;;;;7.90;3.88;;;12.50;99.90;;;;;;5080920;28;20066;-81
2023/10/04 06:30:24;;;;;;;11.20;3.95;;;12.50;99.90;;;;;;5076108;28;20110;-80
2023/10/04 06:32:55;;;;;;;9.15;4.65;;;12.60;99.90;;;;;;5072124;28;20040;-81
2023/10/04 06:35:24;;;;;;;13.63;4.35;;;12.70;99.90;;;;;;5074813;28;20060;-81
2023/10/04 06:38:04;;;;;;;8.95;3.95;;;12.60;99.90;;;;;;5073809;28;20647;-81
2023/10/04 06:40:31;;;;;;;10.00;4.57;;;12.70;99.90;;;;;;5069959;28;20086;-82
2023/10/04 06:43:00;;;;;;;6.75;3.80;;;12.70;99.90;;;;;;5078140;28;20171;-82
2023/10/04 06:45:26;;;;;;;9.65;4.85;;;12.70;99.90;;;;;;5063030;28;20079;-81
2023/10/04 06:47:57;;;;;;;8.82;4.20;;;12.80;99.90;;;;;;5063918;28;21070;-83
2023/10/04 06:50:28;;;;;;;12.50;4.65;;;12.80;99.90;;;;;;5079665;28;20087;-81
2023/10/04 06:52:56;;;;;;;6.97;3.88;;;12.90;99.90;;;;;;5075318;28;20040;-82
2023/10/04 06:55:22;;;;;;;11.00;4.97;;;12.90;99.90;;;;;;5079883;28;20093;-81
2023/10/04 06:57:49;;;;;;;12.52;4.60;;;12.10;99.90;;;;;;5077637;28;20051;-81
2023/10/04 07:00:19;;;;;;;10.50;3.78;;;12.90;99.90;;;;;;5072779;28;20044;-80
2023/10/04 07:02:54;;;;;;;7.75;3.70;;;13.00;99.90;;;;;;5063914;28;20048;-81
2023/10/04 07:05:31;;;;;;;6.85;3.88;;;13.00;99.90;;;;;;5073740;28;20048;-83
2023/10/04 07:07:57;;;;;;;12.55;4.40;;;13.10;99.90;;;;;;5073355;28;20098;-82
2023/10/04 07:10:24;;;;;;;11.05;4.35;;;13.10;99.90;;;;;;5078296;28;20052;-83
2023/10/04 07:12:57;;;;;;;10.60;4.40;;;13.20;99.90;;;;;;5079456;28;20060;-84
2023/10/04 07:15:24;;;;;;;7.15;4.45;;;13.30;99.90;;;;;;5067112;28;20052;-82
2023/10/04 07:17:50;;;;;;;12.07;4.38;;;13.30;99.90;;;;;;5065067;28;20046;-82
2023/10/04 07:20:18;;;;;;;12.73;4.80;;;13.40;99.90;;;;;;5059538;28;20052;-81
2023/10/04 07:22:45;;;;;;;10.65;5.00;;;13.50;99.90;;;;;;5073356;28;20084;-82
2023/10/04 07:25:15;;;;;;;10.48;5.03;;;13.60;99.90;;;;;;5076828;28;20104;-81
2023/10/04 07:27:45;;;;;;;9.63;4.00;;;13.70;99.90;;;;;;5079399;28;20070;-81
2023/10/04 07:30:13;;;;;;;8.40;4.55;;;13.80;99.90;;;;;;5078122;28;20049;-81
2023/10/04 07:32:41;;;;;;;8.23;4.22;;;13.90;99.90;;;;;;5078708;28;20511;-80
2023/10/04 07:35:09;;;;;;;8.55;4.60;;;14.00;99.90;;;;;;5076498;28;20062;-81
2023/10/04 07:37:36;;;;;;;10.85;4.65;;;14.00;99.90;;;;;;5076015;28;20108;-81
2023/10/04 07:40:09;;;;;;;7.65;4.80;;;14.20;99.90;;;;;;5078072;28;20094;-80
2023/10/04 07:42:38;;;;;;;9.52;4.68;;;14.20;99.90;;;;;;5071547;28;20793;-81
2023/10/04 07:45:08;;;;;;;11.82;4.70;;;14.40;99.90;;;;;;5077687;28;20484;-82
2023/10/04 07:47:39;;;;;;;8.50;4.90;;;14.50;99.90;;;;;;5079195;28;20048;-84
2023/10/04 07:50:05;;;;;;;8.63;4.35;;;14.60;99.90;;;;;;5074673;28;20048;-83
2023/10/04 07:52:31;;;;;;;12.32;4.53;;;14.70;99.90;;;;;;5092547;28;20921;-81
2023/10/04 07:54:59;;;;;;;13.68;4.90;;;14.80;99.90;;;;;;5066407;28;20079;-82
2023/10/04 07:57:26;;;;;;;9.65;4.72;;;14.90;99.90;;;;;;5070089;28;20055;-82
2023/10/04 07:59:52;;;;;;;13.60;5.47;;;15.00;99.90;;;;;;5072827;28;20153;-81
2023/10/04 08:02:18;;;;;;;9.77;4.47;;;15.10;99.90;;;;;;5074850;28;20135;-83
2023/10/04 08:04:45;;;;;;;9.70;4.22;;;15.30;99.90;;;;;;5064878;28;20094;-84
2023/10/04 08:07:12;;;;;;;9.52;4.25;;;15.40;99.90;;;;;;5065838;28;20080;-83
2023/10/04 08:09:41;;;;;;;8.43;4.22;;;15.50;99.90;;;;;;5076500;28;20094;-82
2023/10/04 08:12:07;;;;;;;10.82;4.60;;;15.60;99.90;;;;;;5108359;27;20052;-81
2023/10/04 08:14:33;;;;;;;9.77;4.63;;;15.60;99.90;;;;;;5077161;28;20063;-82
2023/10/04 08:17:00;;;;;;;10.25;4.32;;;15.60;99.90;;;;;;5063333;28;20040;-81
2023/10/04 08:19:26;;;;;;;9.40;4.07;;;15.80;99.90;;;;;;5073362;28;20549;-81
2023/10/04 08:21:52;;;;;;;11.52;4.40;;;15.90;99.90;;;;;;5079454;28;20055;-81
2023/10/04 08:24:18;;;;;;;10.00;4.47;;;15.90;99.90;;;;;;5075251;28;20061;-84
2023/10/04 08:26:43;;;;;;;8.65;4.30;;;16.00;99.90;;;;;;5077611;28;20052;-82
2023/10/04 08:29:10;;;;;;;9.45;4.38;;;16.00;99.90;;;;;;5071085;28;20575;-81
2023/10/04 08:31:36;;;;;;;10.77;4.13;;;15.90;99.90;;;;;;5075147;28;20082;-83
2023/10/04 08:34:03;;;;;;;7.80;4.20;;;15.90;99.90;;;;;;5083434;28;20044;-82
2023/10/04 08:36:33;;;;;;;10.98;4.10;;;15.80;99.90;;;;;;5081173;28;20136;-82
2023/10/04 08:39:00;;;;;;;9.50;3.92;;;15.80;99.90;;;;;;5072842;28;20897;-84
2023/10/04 08:41:26;;;;;;;12.75;4.75;;;15.70;99.90;;;;;;5080635;28;20315;-84
2023/10/04 08:43:52;;;;;;;13.43;4.07;;;15.80;99.90;;;;;;5083849;28;20052;-83
2023/10/04 08:46:19;;;;;;;8.43;3.92;;;15.70;99.90;;;;;;5081749;28;20514;-83
2023/10/04 08:48:53;;;;;;;13.32;5.45;;;16.00;99.90;;;;;;5083092;28;20681;-81
2023/10/04 08:51:43;;;;;;;12.70;4.65;;;16.90;99.90;;;;;;5065533;28;20094;-84
2023/10/04 08:54:13;;;;;;;9.85;3.78;;;17.50;99.90;;;;;;5077540;28;20063;-81
2023/10/04 08:56:57;;;;;;;10.15;5.80;;;17.90;99.90;;;;;;5082634;28;20043;-84
2023/10/04 08:59:24;;;;;;;9.07;3.85;;;18.60;99.90;;;;;;5079696;28;20637;-84
2023/10/04 09:01:51;;;;;;;8.65;4.10;;;19.20;99.90;;;;;;5064144;28;20052;-85
2023/10/04 09:04:20;;;;;;;10.27;4.10;;;19.40;99.90;;;;;;5078018;28;20052;-86
2023/10/04 09:06:53;;;;;;;9.23;4.50;;;19.40;99.90;;;;;;5076161;28;20392;-84
2023/10/04 09:09:19;;;;;;;11.77;4.15;;;19.40;99.90;;;;;;5071454;28;20566;-83
2023/10/04 09:11:45;;;;;;;12.30;4.63;;;19.50;99.90;;;;;;5070923;28;20062;-84
2023/10/04 09:14:14;;;;;;;10.07;4.32;;;19.80;99.90;;;;;;5078377;28;20048;-84
2023/10/04 09:16:40;;;;;;;11.88;4.63;;;20.20;99.90;;;;;;5065110;28;20056;-82
2023/10/04 09:19:17;;;;;;;10.23;4.32;;;20.50;99.90;;;;;;5069541;28;20126;-83
2023/10/04 09:21:44;;;;;;;9.45;4.07;;;20.50;99.90;;;;;;5071596;28;20097;-85
2023/10/04 09:24:16;;;;;;;7.10;4.18;;;20.50;99.90;;;;;;5079944;28;20047;-82
2023/10/04 09:26:54;;;;;;;8.13;4.32;;;20.70;99.90;;;;;;5077547;28;20063;-80
2023/10/04 09:29:29;;;;;;;9.20;4.32;;;20.80;99.90;;;;;;5079900;28;20063;-83
2023/10/04 09:31:55;;;;;;;7.32;3.90;;;21.30;99.90;;;;;;5074076;28;20137;-81
2023/10/04 09:34:23;;;;;;;10.23;4.63;;;21.60;99.90;;;;;;5070178;28;20623;-82
2023/10/04 09:36:51;;;;;;;15.32;4.38;;;20.90;99.90;;;;;;5087510;28;20044;-83
2023/10/04 09:39:23;;;;;;;8.32;3.97;;;20.90;99.90;;;;;;5112466;27;20205;-83
2023/10/04 09:41:50;;;;;;;11.60;4.70;;;21.50;99.90;;;;;;5074949;28;20055;-85
2023/10/04 09:44:30;;;;;;;11.63;4.15;;;21.90;99.90;;;;;;5079909;28;20056;-81
2023/10/04 09:47:00;;;;;;;11.20;3.65;;;22.30;99.90;;;;;;5072713;28;20054;-84
2023/10/04 09:49:35;;;;;;;7.07;3.95;;;22.20;99.90;;;;;;5079552;28;20504;-81
2023/10/04 09:52:06;;;;;;;7.65;4.30;;;22.40;99.90;;;;;;5066866;28;20055;-84
2023/10/04 09:54:31;;;;;;;14.52;4.78;;;22.00;99.90;;;;;;5074947;28;20505;-83
2023/10/04 09:56:59;;;;;;;9.60;3.97;;;21.60;99.90;;;;;;5078287;28;20492;-84
2023/10/04 09:59:25;;;;;;;7.60;4.30;;;21.30;99.90;;;;;;5065186;28;20493;-86
2023/10/04 10:01:53;;;;;;;9.60;4.57;;;21.00;99.90;;;;;;5060711;28;20037;-83
2023/10/04 10:04:28;;;;;;;8.55;4.18;;;20.50;99.90;;;;;;5058068;28;20052;-87
2023/10/04 10:07:09;;;;;;;9.88;4.30;;;20.50;99.90;;;;;;5061173;28;20505;-86
2023/10/04 10:09:55;;;;;;;10.32;4.85;;;19.90;99.90;;;;;;5060849;28;20056;-84
2023/10/04 10:12:30;;;;;;;8.00;4.57;;;19.40;99.90;;;;;;5071948;28;20079;-83
2023/10/04 10:14:57;;;;;;;7.40;4.22;;;19.00;99.90;;;;;;5073844;28;20082;-85
2023/10/04 10:17:23;;;;;;;7.85;3.90;;;18.70;99.90;;;;;;5077810;28;20082;-84
2023/10/04 10:19:49;;;;;;;9.70;4.28;;;18.60;99.90;;;;;;5074738;28;20143;-85
2023/10/04 10:22:18;;;;;;;9.32;4.15;;;18.50;99.90;;;;;;5076230;28;20048;-81
2023/10/04 10:24:48;;;;;;;10.77;4.68;;;18.50;99.90;;;;;;5073437;28;20055;-84
2023/10/04 10:27:18;;;;;;;6.88;4.35;;;18.30;99.90;;;;;;5075139;28;20044;-83
2023/10/04 10:29:46;;;;;;;12.05;4.53;;;18.20;99.90;;;;;;5078220;28;20060;-83
2023/10/04 10:32:20;;;;;;;7.45;4.03;;;18.20;99.90;;;;;;5077972;28;20048;-83
2023/10/04 10:34:49;;;;;;;9.10;4.60;;;18.10;99.90;;;;;;5077717;28;20101;-86
2023/10/04 10:37:15;;;;;;;12.00;4.97;;;18.10;99.90;;;;;;5076732;28;20492;-86
2023/10/04 10:39:49;;;;;;;9.95;4.50;;;18.00;99.90;;;;;;5077705;28;20048;-86
2023/10/04 10:42:15;;;;;;;10.02;4.70;;;18.00;99.90;;;;;;5075820;28;20583;-81
2023/10/04 10:44:42;;;;;;;10.23;4.60;;;18.00;99.90;;;;;;5077702;28;20068;-84
2023/10/04 10:47:15;;;;;;;8.38;5.63;;;17.90;99.90;;;;;;5069143;28;20074;-85
2023/10/04 10:49:48;;;;;;;;;;;18.00;99.90;;;;;;5072228;28;20123;-84
2023/10/04 10:52:41;;;;;;;15.23;4.70;;;17.90;99.90;;;;;;5063692;28;19931;-83
2023/10/04 10:55:14;;;;;;;7.32;4.68;;;17.90;99.90;;;;;;5070355;28;20282;-79
2023/10/04 10:57:43;;;;;;;9.75;4.07;;;17.90;99.90;;;;;;5071019;28;20051;-79
2023/10/04 11:02:44;;;;;;;8.10;4.63;;;18.20;99.90;;;;;;5107978;27;20061;-82
2023/10/04 11:05:12;;;;;;;9.02;5.15;;;17.90;99.90;;;;;;5058679;28;20074;-81
2023/10/04 11:07:38;;;;;;;10.40;4.90;;;17.90;99.90;;;;;;5062964;28;20044;-81
2023/10/04 11:10:06;;;;;;;9.82;4.63;;;17.80;99.90;;;;;;5069364;28;20056;-81
2023/10/04 11:12:37;;;;;;;9.75;4.53;;;17.90;99.90;;;;;;5074320;28;20225;-81
2023/10/04 11:15:04;;;;;;;6.95;4.38;;;17.80;99.90;;;;;;5063166;28;20512;-81
2023/10/04 11:17:33;;;;;;;7.75;4.63;;;17.90;99.90;;;;;;5082706;27;20089;-80
2023/10/04 11:19:59;;;;;;;8.27;5.13;;;17.90;99.90;;;;;;5073443;28;20102;-80
2023/10/04 11:22:25;;;;;;;8.57;4.70;;;17.90;99.90;;;;;;5059293;28;20932;-79
2023/10/04 11:24:51;;;;;;;18.30;4.63;;;17.90;99.90;;;;;;5071954;28;20088;-82
2023/10/04 11:27:24;;;;;;;9.52;4.70;;;17.90;99.90;;;;;;5076482;28;20138;-78
2023/10/04 11:29:52;;;;;;;9.05;5.00;;;17.90;99.90;;;;;;5076516;28;20051;-79
2023/10/04 11:32:18;;;;;;;8.32;4.85;;;17.80;99.90;;;;;;5079036;28;20499;-83
2023/10/04 11:34:44;;;;;;;12.77;5.05;;;17.70;99.90;;;;;;5077192;28;20044;-83
2023/10/04 11:37:11;;;;;;;10.90;5.82;;;17.60;99.90;;;;;;5079396;28;20136;-82
2023/10/04 11:39:39;;;;;;;11.63;4.80;;;17.60;99.90;;;;;;5065084;28;20052;-79
2023/10/04 11:42:14;;;;;;;11.65;5.50;;;17.60;99.90;;;;;;5099719;28;20035;-78
2023/10/04 11:44:41;;;;;;;13.40;5.95;;;17.70;99.90;;;;;;5072501;28;20479;-80
2023/10/04 11:47:10;;;;;;;11.05;5.28;;;17.80;99.90;;;;;;5057450;28;20811;-86
2023/10/04 11:49:39;;;;;;;13.38;5.47;;;17.90;99.90;;;;;;5058821;28;20071;-82
2023/10/04 11:52:06;;;;;;;11.98;4.45;;;17.80;99.90;;;;;;5072926;28;20070;-82
2023/10/04 11:54:37;;;;;;;8.73;5.03;;;17.70;99.90;;;;;;5073547;28;20044;-73
2023/10/04 11:57:03;;;;;;;7.07;4.95;;;17.80;99.90;;;;;;5069131;28;20104;-72
2023/10/04 11:59:33;;;;;;;10.25;5.40;;;17.80;99.90;;;;;;5076808;28;20127;-71
2023/10/04 12:02:00;;;;;;;11.70;5.75;;;17.90;99.90;;;;;;5110258;27;20044;-83
2023/10/04 12:04:27;;;;;;;12.50;4.38;;;17.90;99.90;;;;;;5073489;28;20227;-80
2023/10/04 12:07:04;;;;;;;9.40;4.70;;;17.90;99.90;;;;;;5072614;28;20154;-83
2023/10/04 12:09:34;;;;;;;9.32;5.22;;;18.10;99.90;;;;;;5079129;28;20071;-80
2023/10/04 12:12:03;;;;;;;9.02;4.90;;;18.10;99.90;;;;;;5070661;28;20665;-80
2023/10/04 12:14:31;;;;;;;5.63;3.92;;;18.20;99.90;;;;;;5066275;28;20052;-83
2023/10/04 12:17:04;;;;;;;6.75;4.13;;;18.10;99.90;;;;;;5068534;28;20156;-80
2023/10/04 12:19:35;;;;;;;8.10;4.38;;;18.10;99.90;;;;;;5061777;28;20098;-81
2023/10/04 12:22:08;;;;;;;7.47;3.85;;;18.10;99.90;;;;;;5068807;28;20123;-83
2023/10/04 12:24:35;;;;;;;11.63;4.88;;;18.00;99.90;;;;;;5081886;28;20056;-80
2023/10/04 12:27:01;;;;;;;7.82;4.07;;;18.10;99.90;;;;;;5076112;28;20120;-83
2023/10/04 12:29:30;;;;;;;8.13;4.82;;;18.10;99.90;;;;;;5076531;28;20056;-81
2023/10/04 12:31:56;;;;;;;8.85;5.57;;;18.10;99.90;;;;;;5077666;28;20086;-83
2023/10/04 12:34:27;;;;;;;7.38;4.07;;;18.00;99.90;;;;;;5077829;28;20155;-82
2023/10/04 12:36:53;;;;;;;7.57;3.47;;;18.00;99.90;;;;;;5075013;28;20044;-83
2023/10/04 12:39:21;;;;;;;8.80;3.63;;;18.00;99.90;;;;;;5076645;28;20086;-80
2023/10/04 12:41:49;;;;;;;8.52;4.25;;;18.00;99.90;;;;;;5081164;28;20562;-82
2023/10/04 12:44:16;;;;;;;10.07;4.40;;;18.10;99.90;;;;;;5080858;28;20067;-79
2023/10/04 12:46:41;;;;;;;8.20;4.30;;;18.10;99.90;;;;;;5066920;28;20127;-82
2023/10/04 12:49:07;;;;;;;8.75;4.20;;;18.20;99.90;;;;;;5079586;28;20054;-82
2023/10/04 12:51:36;;;;;;;9.68;4.78;;;18.30;99.90;;;;;;5073517;28;20044;-82
2023/10/04 12:54:03;;;;;;;9.35;3.92;;;18.40;99.90;;;;;;5071337;28;20052;-80
2023/10/04 12:56:29;;;;;;;11.23;4.28;;;18.50;99.90;;;;;;5065980;28;20041;-83
2023/10/04 12:58:55;;;;;;;7.13;4.32;;;18.50;99.90;;;;;;5070410;28;20049;-81
2023/10/04 13:01:21;;;;;;;10.40;4.35;;;18.50;99.90;;;;;;5063769;28;20072;-83
2023/10/04 13:03:48;;;;;;;5.43;3.75;;;18.60;99.90;;;;;;5068524;28;20048;-81